createdAt,value
2018-06-07T00:01:42.395Z,19.06
2018-06-07T00:04:12.445Z,19.09
2018-06-07T00:06:42.616Z,19.11
2018-06-07T00:09:12.760Z,19.11
2018-06-07T00:11:42.816Z,19.15
2018-06-07T00:14:12.882Z,19.13
2018-06-07T00:16:43.104Z,19.15
2018-06-07T00:19:13.193Z,19.16
2018-06-07T00:21:43.291Z,19.15
2018-06-07T00:24:13.404Z,19.13
2018-06-07T00:26:43.528Z,19.13
2018-06-07T00:29:13.647Z,19.09
2018-06-07T00:31:43.758Z,19.10
2018-06-07T00:34:13.532Z,19.08
2018-06-07T00:36:43.734Z,19.06
2018-06-07T00:39:13.935Z,19.04
2018-06-07T00:41:43.952Z,19.04
2018-06-07T00:44:13.957Z,19.06
2018-06-07T00:46:44.036Z,19.07
2018-06-07T00:49:14.095Z,19.08
2018-06-07T00:51:44.186Z,19.06
2018-06-07T00:54:14.232Z,19.03
2018-06-07T00:57:19.358Z,18.98
2018-06-07T00:59:49.431Z,18.91
2018-06-07T01:02:19.514Z,18.89
2018-06-07T01:04:49.568Z,18.87
2018-06-07T01:07:19.677Z,18.87
2018-06-07T01:09:49.774Z,18.86
2018-06-07T01:12:19.851Z,18.80
2018-06-07T01:14:49.894Z,18.83
2018-06-07T01:17:20.008Z,18.88
2018-06-07T01:19:50.014Z,18.88
2018-06-07T01:22:20.104Z,18.85
2018-06-07T01:24:50.172Z,18.76
2018-06-07T01:27:20.358Z,18.80
2018-06-07T01:30:06.868Z,18.74
2018-06-07T01:32:58.788Z,18.75
2018-06-07T01:35:28.870Z,18.75
2018-06-07T01:38:15.686Z,18.73
2018-06-07T01:40:45.731Z,18.63
2018-06-07T01:43:15.787Z,18.69
2018-06-07T01:45:45.758Z,18.62
2018-06-07T01:48:16.107Z,18.63
2018-06-07T01:50:46.229Z,18.65
2018-06-07T01:53:16.246Z,18.69
2018-06-07T01:55:46.367Z,18.69
2018-06-07T01:58:16.435Z,18.59
2018-06-07T02:00:46.529Z,18.61
2018-06-07T02:03:16.555Z,18.60
2018-06-07T02:05:46.654Z,18.54
2018-06-07T02:08:16.859Z,18.55
2018-06-07T02:10:46.872Z,18.55
2018-06-07T02:13:16.952Z,18.53
2018-06-07T02:15:47.035Z,18.52
2018-06-07T02:18:17.049Z,18.49
2018-06-07T02:20:47.191Z,18.43
2018-06-07T02:23:17.224Z,18.51
2018-06-07T02:25:47.252Z,18.53
2018-06-07T02:28:17.342Z,18.47
2018-06-07T02:30:47.463Z,18.50
2018-06-07T02:33:17.570Z,18.51
2018-06-07T02:35:47.713Z,18.45
2018-06-07T02:38:17.721Z,18.40
2018-06-07T02:40:47.833Z,18.50
2018-06-07T02:43:17.857Z,18.52
2018-06-07T02:45:47.915Z,18.55
2018-06-07T02:48:18.023Z,18.60
2018-06-07T02:50:48.071Z,18.53
2018-06-07T02:53:18.093Z,18.57
2018-06-07T02:55:48.179Z,18.54
2018-06-07T02:58:18.196Z,18.49
2018-06-07T03:00:48.346Z,18.49
2018-06-07T03:03:18.372Z,18.45
2018-06-07T03:05:48.424Z,18.48
2018-06-07T03:08:18.751Z,18.47
2018-06-07T03:10:48.827Z,18.44
2018-06-07T03:13:18.844Z,18.47
2018-06-07T03:15:48.878Z,18.45
2018-06-07T03:18:18.879Z,18.41
2018-06-07T03:20:48.926Z,18.42
2018-06-07T03:23:19.063Z,18.45
2018-06-07T03:25:49.118Z,18.46
2018-06-07T03:28:19.192Z,18.49
2018-06-07T03:30:49.264Z,18.51
2018-06-07T03:33:18.932Z,18.55
2018-06-07T03:35:49.103Z,18.48
2018-06-07T03:38:19.110Z,18.50
2018-06-07T03:40:49.146Z,18.52
2018-06-07T03:43:19.111Z,18.57
2018-06-07T03:45:49.623Z,18.59
2018-06-07T03:48:19.591Z,18.56
2018-06-07T03:50:49.570Z,18.55
2018-06-07T03:53:19.502Z,18.57
2018-06-07T03:55:49.501Z,18.60
2018-06-07T03:58:19.474Z,18.66
2018-06-07T04:00:50.136Z,18.63
2018-06-07T04:03:19.830Z,18.68
2018-06-07T04:05:49.882Z,18.72
2018-06-07T04:08:19.955Z,18.74
2018-06-07T04:10:50.020Z,18.77
2018-06-07T04:13:20.149Z,18.75
2018-06-07T04:15:50.752Z,18.77
2018-06-07T04:18:20.852Z,18.73
2018-06-07T04:20:50.889Z,18.74
2018-06-07T04:23:20.936Z,18.72
2018-06-07T04:25:50.976Z,18.74
2018-06-07T04:28:21.011Z,18.66
2018-06-07T04:30:50.980Z,18.55
2018-06-07T04:33:20.996Z,18.34
2018-06-07T04:35:50.966Z,18.38
2018-06-07T04:38:20.954Z,18.28
2018-06-07T04:40:51.220Z,18.25
2018-06-07T04:43:21.262Z,18.04
2018-06-07T04:45:51.251Z,18.05
2018-06-07T04:48:21.243Z,18.02
2018-06-07T04:50:51.486Z,18.05
2018-06-07T04:53:21.507Z,18.07
2018-06-07T04:55:51.516Z,18.07
2018-06-07T04:58:21.538Z,18.00
2018-06-07T05:00:51.859Z,17.99
2018-06-07T05:03:21.444Z,17.98
2018-06-07T05:05:51.423Z,17.87
2018-06-07T05:08:21.438Z,17.86
2018-06-07T05:10:51.404Z,17.85
2018-06-07T05:13:21.398Z,17.84
2018-06-07T05:15:51.876Z,17.90
2018-06-07T05:18:21.910Z,17.99
2018-06-07T05:20:51.891Z,17.97
2018-06-07T05:23:21.893Z,18.02
2018-06-07T05:25:51.874Z,18.14
2018-06-07T05:28:21.914Z,18.11
2018-06-07T05:30:51.875Z,18.21
2018-06-07T05:33:21.855Z,18.26
2018-06-07T05:35:51.836Z,18.35
2018-06-07T05:38:21.826Z,18.46
2018-06-07T05:40:51.798Z,18.55
2018-06-07T05:43:21.769Z,18.44
2018-06-07T05:45:51.727Z,18.51
2018-06-07T05:48:21.739Z,18.58
2018-06-07T05:50:51.686Z,18.77
2018-06-07T05:53:21.715Z,18.87
2018-06-07T05:55:51.729Z,18.97
2018-06-07T05:58:21.755Z,19.07
2018-06-07T06:00:51.769Z,19.00
2018-06-07T06:03:21.752Z,18.98
2018-06-07T06:05:51.329Z,19.24
2018-06-07T06:08:21.389Z,19.16
2018-06-07T06:10:50.960Z,19.26
2018-06-07T06:13:20.992Z,19.49
2018-06-07T06:15:51.155Z,19.12
2018-06-07T06:18:21.397Z,19.37
2018-06-07T06:20:51.651Z,19.25
2018-06-07T06:23:21.798Z,19.24
2018-06-07T06:25:51.823Z,19.32
2018-06-07T06:28:21.789Z,19.39
2018-06-07T06:30:51.813Z,19.52
2018-06-07T06:33:21.827Z,19.53
2018-06-07T06:35:51.838Z,19.55
2018-06-07T06:38:52.065Z,19.64
2018-06-07T06:41:22.091Z,19.68
2018-06-07T06:43:52.268Z,19.67
2018-06-07T06:46:22.288Z,19.71
2018-06-07T06:48:52.312Z,19.44
2018-06-07T06:51:22.339Z,19.23
2018-06-07T06:53:52.362Z,19.41
2018-06-07T06:56:22.441Z,19.47
2018-06-07T06:58:52.506Z,19.53
2018-06-07T07:01:22.517Z,19.66
2018-06-07T07:03:52.541Z,19.84
2018-06-07T07:06:22.562Z,19.72
2018-06-07T07:08:52.562Z,19.87
2018-06-07T07:11:22.580Z,19.97
2018-06-07T07:13:52.565Z,19.94
2018-06-07T07:16:22.591Z,19.90
2018-06-07T07:18:52.605Z,19.94
2018-06-07T07:21:22.582Z,20.02
2018-06-07T07:23:52.611Z,20.12
2018-06-07T07:26:22.584Z,20.19
2018-06-07T07:28:52.597Z,20.24
2018-06-07T07:31:22.595Z,20.33
2018-06-07T07:33:52.604Z,20.36
2018-06-07T07:36:22.647Z,20.37
2018-06-07T07:38:52.704Z,20.27
2018-06-07T07:41:22.686Z,20.36
2018-06-07T07:43:52.721Z,20.37
2018-06-07T07:46:22.703Z,20.39
2018-06-07T07:48:52.273Z,20.32
2018-06-07T07:51:22.290Z,20.40
2018-06-07T07:53:52.290Z,20.45
2018-06-07T07:56:22.345Z,20.54
2018-06-07T07:58:52.357Z,20.48
2018-06-07T08:01:22.465Z,20.54
2018-06-07T08:03:52.483Z,20.56
2018-06-07T08:06:22.576Z,20.60
2018-06-07T08:08:52.564Z,20.74
2018-06-07T08:11:22.575Z,20.72
2018-06-07T08:13:52.618Z,20.65
2018-06-07T08:16:22.609Z,20.69
2018-06-07T08:18:52.621Z,20.69
2018-06-07T08:21:22.662Z,20.78
2018-06-07T08:23:52.647Z,20.82
2018-06-07T08:26:22.749Z,20.92
2018-06-07T08:28:52.772Z,20.91
2018-06-07T08:31:22.806Z,20.98
2018-06-07T08:33:52.804Z,21.08
2018-06-07T08:36:22.858Z,21.15
2018-06-07T08:38:53.044Z,21.26
2018-06-07T08:41:23.217Z,21.30
2018-06-07T08:43:53.218Z,21.40
2018-06-07T08:46:23.223Z,21.54
2018-06-07T08:48:54.280Z,21.58
2018-06-07T08:51:24.569Z,21.60
2018-06-07T08:53:54.557Z,21.56
2018-06-07T08:56:24.650Z,21.61
2018-06-07T08:58:54.630Z,21.50
2018-06-07T09:01:24.680Z,21.54
2018-06-07T09:03:54.729Z,21.53
2018-06-07T09:06:24.740Z,21.52
2018-06-07T09:08:54.768Z,21.41
2018-06-07T09:11:24.787Z,21.54
2018-06-07T09:13:54.990Z,21.51
2018-06-07T09:16:25.057Z,21.52
2018-06-07T09:18:55.507Z,21.48
2018-06-07T09:21:25.133Z,21.40
2018-06-07T09:23:55.141Z,21.62
2018-06-07T09:26:25.177Z,21.70
2018-06-07T09:28:55.221Z,21.61
2018-06-07T09:31:25.292Z,21.66
2018-06-07T09:33:55.284Z,21.81
2018-06-07T09:36:25.261Z,21.89
2018-06-07T09:38:55.393Z,22.00
2018-06-07T09:41:25.510Z,21.87
2018-06-07T09:43:55.506Z,22.05
2018-06-07T09:46:25.588Z,22.19
2018-06-07T09:48:55.687Z,22.15
2018-06-07T09:51:25.744Z,22.20
2018-06-07T09:53:55.855Z,22.35
2018-06-07T09:56:25.909Z,22.39
2018-06-07T09:58:55.943Z,22.45
2018-06-07T10:01:25.952Z,22.62
2018-06-07T10:03:56.025Z,22.70
2018-06-07T10:06:26.208Z,22.82
2018-06-07T10:08:56.293Z,22.89
2018-06-07T10:11:26.368Z,22.92
2018-06-07T10:13:56.424Z,22.95
2018-06-07T10:16:26.472Z,23.15
2018-06-07T10:18:56.509Z,23.21
2018-06-07T10:21:26.157Z,23.29
2018-06-07T10:23:56.305Z,23.24
2018-06-07T10:26:26.418Z,23.07
2018-06-07T10:28:56.522Z,23.00
2018-06-07T10:31:26.581Z,22.72
2018-06-07T10:33:56.641Z,22.87
2018-06-07T10:36:26.641Z,22.93
2018-06-07T10:38:56.899Z,23.26
2018-06-07T10:41:26.989Z,23.26
2018-06-07T10:43:57.339Z,23.22
2018-06-07T10:46:27.447Z,23.25
2018-06-07T10:48:57.685Z,23.20
2018-06-07T10:51:27.767Z,23.10
2018-06-07T10:53:57.987Z,23.05
2018-06-07T10:56:28.855Z,22.95
2018-06-07T10:58:59.216Z,22.97
2018-06-07T11:01:29.471Z,23.02
2018-06-07T11:03:59.760Z,22.88
2018-06-07T11:06:29.942Z,22.73
2018-06-07T11:09:00.017Z,22.57
2018-06-07T11:11:30.082Z,22.57
2018-06-07T11:14:00.210Z,22.43
2018-06-07T11:16:31.234Z,22.52
2018-06-07T11:19:01.416Z,22.53
2018-06-07T11:21:31.433Z,22.53
2018-06-07T11:24:01.204Z,22.55
2018-06-07T11:26:31.252Z,22.27
2018-06-07T11:29:01.657Z,22.36
2018-06-07T11:31:31.689Z,22.27
2018-06-07T11:34:01.743Z,22.34
2018-06-07T11:36:31.784Z,22.42
2018-06-07T11:39:01.899Z,22.43
2018-06-07T11:41:31.581Z,22.45
2018-06-07T11:44:01.723Z,22.45
2018-06-07T11:46:31.762Z,22.53
2018-06-07T11:49:01.817Z,22.67
2018-06-07T11:51:31.859Z,22.75
2018-06-07T11:54:01.841Z,22.72
2018-06-07T11:56:31.996Z,22.63
2018-06-07T11:59:01.981Z,22.91
2018-06-07T12:01:32.051Z,23.09
2018-06-07T12:04:02.126Z,23.26
2018-06-07T12:06:32.377Z,23.29
2018-06-07T12:09:02.469Z,23.27
2018-06-07T12:11:32.555Z,23.26
2018-06-07T12:14:02.797Z,23.34
2018-06-07T12:16:32.999Z,23.42
2018-06-07T12:19:03.191Z,23.42
2018-06-07T12:21:33.435Z,23.51
2018-06-07T12:24:03.516Z,23.54
2018-06-07T12:26:33.786Z,23.48
2018-06-07T12:29:03.916Z,23.52
2018-06-07T12:31:34.112Z,23.42
2018-06-07T12:34:04.145Z,23.47
2018-06-07T12:36:34.169Z,23.49
2018-06-07T12:39:05.116Z,23.57
2018-06-07T12:41:35.118Z,23.60
2018-06-07T12:44:05.169Z,23.47
2018-06-07T12:46:35.170Z,23.49
2018-06-07T12:49:05.248Z,23.47
2018-06-07T12:51:35.444Z,23.42
2018-06-07T12:54:05.660Z,23.42
2018-06-07T12:56:35.698Z,23.38
2018-06-07T12:59:05.842Z,23.42
2018-06-07T13:01:35.879Z,23.51
2018-06-07T13:04:05.982Z,23.52
2018-06-07T13:06:35.984Z,23.74
2018-06-07T13:09:07.608Z,23.85
2018-06-07T13:11:37.677Z,23.71
2018-06-07T13:14:07.724Z,23.88
2018-06-07T13:16:38.392Z,23.97
2018-06-07T13:19:09.100Z,24.06
2018-06-07T13:21:39.472Z,24.11
2018-06-07T13:24:09.627Z,24.21
2018-06-07T13:26:39.689Z,24.22
2018-06-07T13:29:09.783Z,24.26
2018-06-07T13:31:39.901Z,24.37
2018-06-07T13:34:10.020Z,24.48
2018-06-07T13:36:40.004Z,24.62
2018-06-07T13:39:11.312Z,24.70
2018-06-07T13:41:41.458Z,24.68
2018-06-07T13:44:11.671Z,24.62
2018-06-07T13:46:41.752Z,24.60
2018-06-07T13:49:12.502Z,24.61
2018-06-07T13:51:42.588Z,24.52
2018-06-07T13:54:12.873Z,24.51
2018-06-07T13:56:43.085Z,24.50
2018-06-07T13:59:13.411Z,24.48
2018-06-07T14:01:43.761Z,24.44
2018-06-07T14:04:13.883Z,24.39
2018-06-07T14:06:44.035Z,24.43
2018-06-07T14:09:14.325Z,24.40
2018-06-07T14:11:44.458Z,24.46
2018-06-07T14:14:14.645Z,24.17
2018-06-07T14:16:44.788Z,24.26
2018-06-07T14:19:14.875Z,24.17
2018-06-07T14:21:44.872Z,24.19
2018-06-07T14:24:14.908Z,24.37
2018-06-07T14:26:44.926Z,24.33
2018-06-07T14:29:15.020Z,24.33
2018-06-07T14:31:45.005Z,24.24
2018-06-07T14:34:15.063Z,24.19
2018-06-07T14:36:45.208Z,24.09
2018-06-07T14:39:15.397Z,24.10
2018-06-07T14:41:45.627Z,23.96
2018-06-07T14:44:15.606Z,23.88
2018-06-07T14:46:45.572Z,23.84
2018-06-07T14:49:15.575Z,23.70
2018-06-07T14:51:46.242Z,23.66
2018-06-07T14:54:16.529Z,23.69
2018-06-07T14:56:46.564Z,23.69
2018-06-07T14:59:16.582Z,23.68
2018-06-07T15:01:46.805Z,23.58
2018-06-07T15:04:17.131Z,23.58
2018-06-07T15:06:47.652Z,23.50
2018-06-07T15:09:17.969Z,23.44
2018-06-07T15:11:48.226Z,23.32
2018-06-07T15:14:18.543Z,23.26
2018-06-07T15:16:48.608Z,23.33
2018-06-07T15:19:18.786Z,23.40
2018-06-07T15:21:48.891Z,23.44
2018-06-07T15:24:19.050Z,23.42
2018-06-07T15:26:49.478Z,23.40
2018-06-07T15:29:19.649Z,23.46
2018-06-07T15:31:49.819Z,23.53
2018-06-07T15:34:20.128Z,23.57
2018-06-07T15:36:50.412Z,23.49
2018-06-07T15:39:20.567Z,23.53
2018-06-07T15:41:50.659Z,23.52
2018-06-07T15:44:20.637Z,23.27
2018-06-07T15:46:50.622Z,23.56
2018-06-07T15:49:21.335Z,23.51
2018-06-07T15:51:51.517Z,23.50
2018-06-07T15:54:22.216Z,23.46
2018-06-07T15:56:52.132Z,23.37
2018-06-07T15:59:22.376Z,23.25
2018-06-07T16:01:52.603Z,23.22
2018-06-07T16:04:22.864Z,23.05
2018-06-07T16:06:53.013Z,22.86
2018-06-07T16:09:23.144Z,22.78
2018-06-07T16:11:53.283Z,22.69
2018-06-07T16:14:23.381Z,22.58
2018-06-07T16:16:53.713Z,22.47
2018-06-07T16:19:23.884Z,22.42
2018-06-07T16:21:53.992Z,22.27
2018-06-07T16:24:24.082Z,22.22
2018-06-07T16:26:55.212Z,22.11
2018-06-07T16:29:25.333Z,22.03
2018-06-07T16:31:55.987Z,21.91
2018-06-07T16:34:26.070Z,21.85
2018-06-07T16:36:56.754Z,21.80
2018-06-07T16:39:26.888Z,21.68
2018-06-07T16:41:57.047Z,21.67
2018-06-07T16:44:27.268Z,21.56
2018-06-07T16:46:57.336Z,21.52
2018-06-07T16:49:27.474Z,21.49
2018-06-07T16:51:57.585Z,21.42
2018-06-07T16:54:27.650Z,21.40
2018-06-07T16:56:57.800Z,21.37
2018-06-07T17:59:37.041Z,19.75
2018-06-07T18:02:07.137Z,19.72
2018-06-07T18:04:37.133Z,19.58
2018-06-07T18:07:07.287Z,19.49
2018-06-07T18:09:37.305Z,19.46
2018-06-07T18:12:07.648Z,19.48
2018-06-07T18:14:37.638Z,19.48
2018-06-07T18:17:07.664Z,19.48
2018-06-07T18:19:37.678Z,19.50
2018-06-07T18:22:07.849Z,19.42
2018-06-07T18:24:37.909Z,19.41
2018-06-07T18:27:08.063Z,19.43
2018-06-07T18:29:38.109Z,19.44
2018-06-07T18:32:08.380Z,19.47
2018-06-07T18:34:38.400Z,19.48
2018-06-07T18:37:08.552Z,19.49
2018-06-07T18:39:38.786Z,19.49
2018-06-07T18:42:08.911Z,19.49
2018-06-07T18:44:38.991Z,19.40
2018-06-07T18:47:09.390Z,19.24
2018-06-07T18:49:39.536Z,19.27
2018-06-07T18:52:09.237Z,19.29
2018-06-07T18:54:39.422Z,19.35
2018-06-07T18:57:09.628Z,19.38
2018-06-07T18:59:39.885Z,19.45
2018-06-07T19:02:09.943Z,19.26
2018-06-07T19:04:41.873Z,19.22
2018-06-07T19:07:17.269Z,19.13
2018-06-07T19:09:52.452Z,19.02
2018-06-07T19:12:22.703Z,19.07
2018-06-07T19:14:59.211Z,19.08
2018-06-07T19:17:30.550Z,19.08
2018-06-07T19:20:05.908Z,19.03
2018-06-07T19:22:36.851Z,19.01
2018-06-07T19:25:12.259Z,19.01
2018-06-07T19:27:42.423Z,18.98
2018-06-07T19:30:12.644Z,18.97
2018-06-07T19:32:48.553Z,18.94
2018-06-07T19:35:19.452Z,18.92
2018-06-07T19:37:49.773Z,18.83
2018-06-07T19:40:25.067Z,18.77
2018-06-07T19:42:55.658Z,18.79
2018-06-07T19:45:25.804Z,18.78
2018-06-07T19:47:55.932Z,18.79
2018-06-07T19:50:26.235Z,18.79
2018-06-07T19:52:56.345Z,18.82
2018-06-07T19:55:26.419Z,18.80
2018-06-07T19:57:56.581Z,18.82
2018-06-07T20:00:26.675Z,18.83
2018-06-07T20:02:56.369Z,18.80
2018-06-07T20:05:26.477Z,18.71
2018-06-07T20:07:56.642Z,18.65
2018-06-07T20:10:27.112Z,18.63
2018-06-07T20:12:57.409Z,18.65
2018-06-07T20:15:27.544Z,18.69
2018-06-07T20:17:57.720Z,18.70
2018-06-07T20:20:27.966Z,18.65
2018-06-07T20:22:59.176Z,18.61
2018-06-07T20:25:29.397Z,18.59
2018-06-07T20:27:59.492Z,18.56
2018-06-07T20:30:29.615Z,18.51
2018-06-07T20:32:59.602Z,18.49
2018-06-07T20:35:29.668Z,18.58
2018-06-07T20:37:59.717Z,18.58
2018-06-07T20:40:29.759Z,18.55
2018-06-07T20:42:59.372Z,18.37
2018-06-07T20:45:29.581Z,18.29
2018-06-07T20:47:59.835Z,18.29
2018-06-07T20:50:29.972Z,18.29
2018-06-07T20:53:00.290Z,18.28
2018-06-07T20:55:30.393Z,18.26
2018-06-07T20:58:00.462Z,18.23
2018-06-07T21:00:30.486Z,18.14
2018-06-07T21:03:00.561Z,18.09
2018-06-07T21:05:30.540Z,18.02
2018-06-07T21:08:00.713Z,17.97
2018-06-07T21:10:30.295Z,17.95
2018-06-07T21:13:00.296Z,17.93
2018-06-07T21:15:30.281Z,17.90
2018-06-07T21:18:00.345Z,17.85
2018-06-07T21:20:30.355Z,17.84
2018-06-07T21:23:00.403Z,17.81
2018-06-07T21:25:30.405Z,17.81
2018-06-07T21:28:00.441Z,17.80
2018-06-07T21:30:30.442Z,17.80
2018-06-07T21:33:00.448Z,17.77
2018-06-07T21:35:30.456Z,17.71
2018-06-07T21:38:00.477Z,17.70
2018-06-07T21:40:30.554Z,17.67
2018-06-07T21:43:00.534Z,17.64
2018-06-07T21:45:30.545Z,17.62
2018-06-07T21:48:00.578Z,17.57
2018-06-07T21:50:30.589Z,17.54
2018-06-07T21:53:00.609Z,17.52
2018-06-07T21:55:30.671Z,17.53
2018-06-07T21:58:00.731Z,17.50
2018-06-07T22:00:30.769Z,17.47
2018-06-07T22:03:00.768Z,17.40
2018-06-07T22:05:30.807Z,17.33
2018-06-07T22:08:00.797Z,17.32
2018-06-07T22:10:30.458Z,17.31
2018-06-07T22:13:00.559Z,17.32
2018-06-07T22:15:30.662Z,17.31
2018-06-07T22:18:00.758Z,17.28
2018-06-07T22:20:30.874Z,17.27
2018-06-07T22:23:00.936Z,17.28
2018-06-07T22:25:30.984Z,17.25
2018-06-07T22:28:01.012Z,17.21
2018-06-07T22:30:31.160Z,17.19
2018-06-07T22:33:01.204Z,17.14
2018-06-07T22:35:31.282Z,17.10
2018-06-07T22:38:01.325Z,17.06
2018-06-07T22:40:31.403Z,17.00
2018-06-07T22:43:01.406Z,16.95
2018-06-07T22:45:31.465Z,16.91
2018-06-07T22:48:01.440Z,16.92
2018-06-07T22:50:31.503Z,16.94
2018-06-07T22:53:01.481Z,16.91
2018-06-07T22:55:31.117Z,16.86
2018-06-07T22:58:01.470Z,16.81
2018-06-07T23:00:31.543Z,16.80
2018-06-07T23:03:01.551Z,16.84
2018-06-07T23:05:31.623Z,16.80
2018-06-07T23:08:01.787Z,16.69
2018-06-07T23:10:31.814Z,16.62
2018-06-07T23:13:01.819Z,16.56
2018-06-07T23:15:31.822Z,16.56
2018-06-07T23:18:01.835Z,16.58
2018-06-07T23:20:31.917Z,16.51
2018-06-07T23:23:01.972Z,16.45
2018-06-07T23:25:31.995Z,16.46
2018-06-07T23:28:02.044Z,16.43
2018-06-07T23:30:32.019Z,16.41
2018-06-07T23:33:02.024Z,16.39
2018-06-07T23:35:32.021Z,16.31
2018-06-07T23:38:02.048Z,16.23
2018-06-07T23:40:32.030Z,16.18
2018-06-07T23:43:02.071Z,16.18
2018-06-07T23:45:32.051Z,16.11
2018-06-07T23:48:02.065Z,16.09
2018-06-07T23:50:32.027Z,16.02
2018-06-07T23:53:02.060Z,15.99
2018-06-07T23:55:32.067Z,15.96
2018-06-07T23:58:02.071Z,15.93
